Time;durP1;ratioP1;P1;durP2;ratioP2;P2;SDS_P1;SDS_P2;PMS_P1;PMS_P2;Temp;Humidity;BMP_temperature;BMP_pressure;BME280_temperature;BME280_humidity;BME280_pressure;Samples;Min_cycle;Max_cycle;Signal;HPM_P1;HPM_P2
2023/09/04 04:12:21;;;;;;;1608.15;999.90;;;11.30;99.90;;;;;;4800593;29;20046;-89
2023/09/04 04:15:07;;;;;;;1578.18;999.90;;;11.60;99.90;;;;;;4790889;29;20077;-89
2023/09/04 04:24:59;;;;;;;1583.35;999.90;;;11.20;99.90;;;;;;4815094;29;20053;-90
2023/09/04 04:28:14;;;;;;;;;;;;;;;;;;;;;
2023/09/04 04:34:11;;;;;;;1450.72;999.90;;;11.20;99.90;;;;;;4820749;24;20077;-89
2023/09/04 04:36:37;;;;;;;1522.47;999.90;;;11.20;99.90;;;;;;4812846;29;20082;-89
2023/09/04 04:39:03;;;;;;;1447.28;999.90;;;11.20;99.90;;;;;;4804393;29;20046;-88
2023/09/04 04:48:19;;;;;;;;;;;;;;;;;;;;;
2023/09/04 04:51:13;;;;;;;1413.97;999.90;;;11.20;99.90;;;;;;4809594;29;20081;-89
2023/09/04 04:54:10;;;;;;;1591.22;999.90;;;11.10;99.90;;;;;;4806586;29;20111;-89
2023/09/04 04:56:48;;;;;;;1574.38;999.90;;;11.20;99.90;;;;;;4806259;29;20051;-89
2023/09/04 04:59:15;;;;;;;1499.60;999.90;;;11.20;99.90;;;;;;4806345;29;20058;-88
2023/09/04 05:01:42;;;;;;;1440.72;999.90;;;11.20;99.90;;;;;;4806486;29;20054;-89
2023/09/04 05:04:44;;;;;;;1487.85;999.90;;;11.20;99.90;;;;;;4806598;29;20054;-89
2023/09/04 05:07:34;;;;;;;1514.18;999.90;;;11.40;99.90;;;;;;4811058;29;20049;-89
2023/09/04 05:10:00;;;;;;;1530.47;999.90;;;11.30;99.90;;;;;;4805220;29;20086;-88
2023/09/04 05:12:41;;;;;;;1536.85;999.90;;;11.30;99.90;;;;;;4802806;24;20058;-89
2023/09/04 05:18:45;;;;;;;1512.93;999.90;;;11.40;99.90;;;;;;4817042;29;20082;-89
2023/09/04 05:28:16;;;;;;;1508.80;999.90;;;11.50;99.90;;;;;;4967729;24;20058;-89
2023/09/04 05:31:04;;;;;;;1528.47;999.90;;;11.70;99.90;;;;;;4800571;29;20098;-89
2023/09/04 05:33:52;;;;;;;1386.40;999.90;;;11.50;99.90;;;;;;4823142;29;20510;-89
2023/09/04 05:36:18;;;;;;;1312.43;999.90;;;11.50;99.90;;;;;;4833006;29;20050;-89
2023/09/04 05:38:59;;;;;;;1430.55;999.90;;;11.60;99.90;;;;;;4818626;29;20125;-88
2023/09/04 05:41:28;;;;;;;1427.90;999.90;;;11.70;99.90;;;;;;4839003;29;20053;-89
2023/09/04 05:44:19;;;;;;;1388.82;999.90;;;11.80;99.90;;;;;;4838532;29;20415;-89
2023/09/04 05:47:06;;;;;;;1389.97;999.90;;;11.70;99.90;;;;;;4843711;24;20058;-89
2023/09/04 05:49:34;;;;;;;1330.43;999.90;;;11.90;99.90;;;;;;4787712;29;20522;-88
2023/09/04 05:52:19;;;;;;;;;;;;;;;;;;;;;
2023/09/04 05:55:07;;;;;;;1399.30;999.90;;;12.00;99.90;;;;;;4804405;24;20459;-88
2023/09/04 05:57:33;;;;;;;1401.15;999.90;;;12.00;99.90;;;;;;4886664;24;20054;-88
2023/09/04 06:00:06;;;;;;;1317.32;999.90;;;12.10;99.90;;;;;;4834794;29;20530;-89
2023/09/04 06:03:19;;;;;;;1311.85;999.90;;;12.20;99.90;;;;;;4796522;29;20616;-89
2023/09/04 06:05:51;;;;;;;1302.00;999.90;;;12.30;99.90;;;;;;4728998;30;20079;-89
2023/09/04 06:08:37;;;;;;;1324.43;999.90;;;12.30;99.90;;;;;;4761657;29;20412;-88
2023/09/04 06:11:05;;;;;;;1315.75;999.90;;;12.40;99.90;;;;;;4777445;29;20051;-89
2023/09/04 06:14:16;;;;;;;1237.03;999.90;;;12.50;99.90;;;;;;4766420;29;20035;-89
2023/09/04 06:17:12;;;;;;;1269.15;999.90;;;12.60;99.90;;;;;;4785347;29;20128;-89
2023/09/04 06:19:41;;;;;;;1250.30;999.90;;;12.70;99.90;;;;;;4860939;24;20050;-89
2023/09/04 06:22:09;;;;;;;1208.40;989.75;;;12.80;99.90;;;;;;4812170;29;20054;-89
2023/09/04 06:24:50;;;;;;;1266.00;999.90;;;12.90;99.90;;;;;;4806962;29;20503;-89
2023/09/04 06:27:22;;;;;;;1209.97;997.45;;;13.00;99.90;;;;;;4789466;29;20089;-89
2023/09/04 06:30:34;;;;;;;1200.28;996.75;;;13.10;99.90;;;;;;4803912;29;20068;-89
2023/09/04 06:33:43;;;;;;;1170.47;986.33;;;13.10;99.90;;;;;;4819757;29;20065;-88
2023/09/04 06:57:13;;;;;;;1090.88;970.15;;;13.90;99.90;;;;;;4819947;29;20132;-88
2023/09/04 07:00:27;;;;;;;1121.32;982.25;;;14.00;99.90;;;;;;4763912;30;20530;-89
2023/09/04 07:10:46;;;;;;;1058.75;946.53;;;14.40;99.90;;;;;;4766587;29;20214;-88
2023/09/04 07:13:12;;;;;;;1051.40;938.00;;;14.60;99.90;;;;;;4819515;29;20046;-89
2023/09/04 07:16:37;;;;;;;;;;;;;;;;;;;;;
2023/09/04 07:19:28;;;;;;;1015.28;904.47;;;15.00;99.90;;;;;;4764349;29;20074;-88
2023/09/04 07:22:17;;;;;;;1075.22;940.75;;;15.10;99.90;;;;;;4795587;29;20050;-88
2023/09/04 07:29:01;;;;;;;;;;;;;;;;;;;;;
2023/09/04 07:36:16;;;;;;;978.17;877.25;;;15.80;99.90;;;;;;4665205;30;20053;-91
2023/09/04 07:46:06;;;;;;;881.65;790.88;;;16.30;99.90;;;;;;4682000;30;20059;-92
2023/09/04 07:51:09;;;;;;;790.63;709.13;;;16.70;99.90;;;;;;4843213;24;20073;-90
2023/09/04 07:53:46;;;;;;;730.45;656.42;;;16.80;99.90;;;;;;4817183;29;20167;-91
2023/09/04 07:56:41;;;;;;;772.67;694.47;;;16.90;99.90;;;;;;4833334;29;20134;-91
2023/09/04 07:59:12;;;;;;;666.83;598.65;;;17.00;99.90;;;;;;4824002;29;20123;-92
2023/09/04 08:01:51;;;;;;;549.05;500.33;;;17.20;99.90;;;;;;4829661;29;20053;-91
2023/09/04 08:04:31;;;;;;;578.03;527.65;;;17.40;99.90;;;;;;4829785;29;20058;-92
2023/09/04 08:07:30;;;;;;;641.40;587.05;;;17.50;99.90;;;;;;4821795;29;20081;-90
2023/09/04 08:09:59;;;;;;;690.53;631.15;;;17.60;99.90;;;;;;4818392;29;20531;-91
2023/09/04 08:12:25;;;;;;;735.80;673.67;;;17.60;99.90;;;;;;4809697;29;20115;-91
2023/09/04 08:15:03;;;;;;;668.10;612.13;;;17.70;99.90;;;;;;4788367;29;20070;-91
2023/09/04 08:18:03;;;;;;;874.80;796.45;;;17.90;99.90;;;;;;4792101;29;20105;-92
2023/09/04 08:20:49;;;;;;;932.10;843.75;;;18.00;99.90;;;;;;4786060;29;20058;-91
2023/09/04 08:23:23;;;;;;;914.00;827.83;;;18.10;99.90;;;;;;4788356;29;20050;-92
2023/09/04 08:26:34;;;;;;;;;;;;;;;;;;;;;
2023/09/04 08:29:19;;;;;;;;;;;;;;;;;;;;;
2023/09/04 08:31:47;;;;;;;755.83;691.83;;;18.40;99.90;;;;;;4815944;29;20050;-92
2023/09/04 08:34:45;;;;;;;653.55;599.55;;;18.50;99.90;;;;;;4804347;29;20053;-92
2023/09/04 08:37:24;;;;;;;843.80;772.53;;;18.60;99.90;;;;;;4814628;29;20065;-91
2023/09/04 08:40:21;;;;;;;738.10;676.17;;;18.70;99.90;;;;;;4801404;29;20042;-92
2023/09/04 08:43:07;;;;;;;561.80;514.60;;;18.90;99.90;;;;;;4832186;29;20251;-91
2023/09/04 08:46:06;;;;;;;;;;;;;;;;;;;;;
2023/09/04 08:48:59;;;;;;;518.97;478.73;;;19.00;99.90;;;;;;4835753;29;20061;-91
2023/09/04 08:54:42;;;;;;;589.65;544.60;;;19.20;99.90;;;;;;4825879;29;20054;-94
2023/09/04 08:57:31;;;;;;;642.50;594.40;;;19.30;99.90;;;;;;4818256;29;20056;-93
2023/09/04 09:00:29;;;;;;;591.70;543.45;;;19.30;99.90;;;;;;4836310;29;20079;-94
2023/09/04 09:03:11;;;;;;;646.35;595.47;;;19.40;99.90;;;;;;4835602;29;20132;-94
2023/09/04 09:06:06;;;;;;;662.45;610.75;;;19.50;99.90;;;;;;4828917;29;20096;-93
2023/09/04 09:08:48;;;;;;;821.15;754.17;;;19.50;99.90;;;;;;4832335;29;20066;-94
2023/09/04 09:11:41;;;;;;;746.28;681.53;;;19.60;99.90;;;;;;4805308;29;20054;-94
2023/09/04 09:15:02;;;;;;;834.28;765.28;;;19.70;99.90;;;;;;4791513;29;20046;-94
2023/09/04 09:18:14;;;;;;;754.50;689.55;;;19.80;99.90;;;;;;4788674;29;20054;-92
2023/09/04 09:21:08;;;;;;;731.13;670.17;;;19.70;99.90;;;;;;4812172;29;20080;-93
2023/09/04 09:23:40;;;;;;;712.10;656.17;;;20.00;99.90;;;;;;4800065;29;20054;-91
2023/09/04 09:26:14;;;;;;;824.13;754.40;;;20.00;99.90;;;;;;4791038;29;20055;-93
2023/09/04 09:28:45;;;;;;;800.28;735.50;;;20.10;99.90;;;;;;4803064;29;20053;-92
2023/09/04 09:31:24;;;;;;;840.78;769.08;;;20.20;99.90;;;;;;4786561;29;20076;-92
2023/09/04 09:33:52;;;;;;;725.55;662.28;;;20.30;99.90;;;;;;4802917;29;20118;-92
2023/09/04 09:36:37;;;;;;;630.72;574.88;;;20.40;99.90;;;;;;4800856;29;20058;-92
2023/09/04 09:39:14;;;;;;;789.33;720.58;;;20.40;99.90;;;;;;4823172;29;20137;-92
2023/09/04 09:41:40;;;;;;;607.40;555.42;;;20.50;99.90;;;;;;4821583;29;20510;-92
2023/09/04 09:44:09;;;;;;;676.63;620.75;;;20.60;99.90;;;;;;4837505;29;20046;-92
2023/09/04 09:46:38;;;;;;;741.78;676.33;;;20.80;99.90;;;;;;4822555;29;20054;-92
2023/09/04 09:49:06;;;;;;;656.00;601.88;;;20.70;99.90;;;;;;4837838;29;20049;-93
2023/09/04 09:51:32;;;;;;;640.17;588.50;;;20.80;99.90;;;;;;4820934;29;20411;-92
2023/09/04 09:54:00;;;;;;;667.58;612.55;;;20.90;99.90;;;;;;4837096;29;20046;-92
2023/09/04 09:56:30;;;;;;;563.85;518.50;;;20.90;99.90;;;;;;4821080;29;20060;-91
2023/09/04 09:59:05;;;;;;;709.28;651.33;;;20.90;99.90;;;;;;4836676;29;20057;-91
2023/09/04 10:01:36;;;;;;;830.38;754.28;;;21.00;99.90;;;;;;4821937;29;20142;-92
2023/09/04 10:04:05;;;;;;;656.50;604.85;;;21.10;99.90;;;;;;4821770;29;20368;-92
2023/09/04 10:07:02;;;;;;;569.05;523.58;;;21.10;99.90;;;;;;4821434;29;20053;-93
2023/09/04 10:09:42;;;;;;;522.53;480.70;;;21.30;99.90;;;;;;4825171;29;20051;-92
2023/09/04 10:13:02;;;;;;;548.90;505.27;;;21.20;99.90;;;;;;4819051;29;20087;-92
2023/09/04 10:15:50;;;;;;;562.00;517.50;;;21.20;99.90;;;;;;4839326;29;20403;-93
2023/09/04 10:18:33;;;;;;;484.80;445.33;;;21.30;99.90;;;;;;4821837;29;20056;-92
2023/09/04 10:21:45;;;;;;;497.20;457.52;;;21.40;99.90;;;;;;4820386;29;20130;-92
2023/09/04 10:24:46;;;;;;;619.15;569.70;;;21.50;99.90;;;;;;4812852;29;20046;-93
2023/09/04 10:27:22;;;;;;;486.42;446.67;;;21.40;99.90;;;;;;4777018;29;20067;-94
2023/09/04 10:30:36;;;;;;;429.05;394.10;;;21.60;99.90;;;;;;4786421;29;20107;-92
2023/09/04 10:33:26;;;;;;;399.17;367.55;;;21.70;99.90;;;;;;4757744;29;20063;-93
2023/09/04 10:36:12;;;;;;;444.10;407.10;;;21.70;99.90;;;;;;4819097;29;20104;-93
2023/09/04 10:38:44;;;;;;;455.20;419.27;;;21.80;99.90;;;;;;4829874;29;20065;-92
2023/09/04 10:41:35;;;;;;;406.15;373.40;;;21.90;99.90;;;;;;4816448;29;20073;-93
2023/09/04 10:44:01;;;;;;;339.20;314.20;;;21.90;99.90;;;;;;4834640;29;20089;-91
2023/09/04 10:46:27;;;;;;;320.73;296.65;;;21.90;99.90;;;;;;4820503;29;20064;-91
2023/09/04 10:48:56;;;;;;;332.20;308.25;;;21.90;99.90;;;;;;4831376;29;20053;-92
2023/09/04 10:51:31;;;;;;;455.25;417.63;;;21.90;99.90;;;;;;4820955;29;20141;-91
2023/09/04 10:54:24;;;;;;;464.65;427.15;;;22.00;99.90;;;;;;4810199;29;20059;-93
2023/09/04 10:57:00;;;;;;;381.05;351.38;;;22.10;99.90;;;;;;4819857;29;20060;-92
2023/09/04 10:59:30;;;;;;;431.15;397.00;;;22.30;99.90;;;;;;4821101;29;20046;-92
2023/09/04 11:02:19;;;;;;;;;;;22.30;99.90;;;;;;4821842;29;20142;-92
2023/09/04 11:04:53;;;;;;;327.27;304.40;;;22.30;99.90;;;;;;4835384;29;19928;-93
2023/09/04 11:07:26;;;;;;;458.40;421.35;;;22.30;99.90;;;;;;4834435;29;20502;-91
2023/09/04 11:09:58;;;;;;;315.88;293.35;;;22.30;99.90;;;;;;4819169;29;20041;-93
2023/09/04 11:12:26;;;;;;;236.23;220.48;;;22.40;99.90;;;;;;4836562;29;20153;-93
2023/09/04 11:14:58;;;;;;;282.17;262.95;;;22.40;99.90;;;;;;4819718;29;20042;-93
2023/09/04 11:17:37;;;;;;;248.13;231.85;;;22.50;99.90;;;;;;4834848;29;20508;-93
2023/09/04 11:20:04;;;;;;;190.45;177.55;;;22.40;99.90;;;;;;4820903;29;20065;-92
2023/09/04 11:22:36;;;;;;;241.00;225.13;;;22.50;99.90;;;;;;4820906;29;20470;-93
2023/09/04 11:25:10;;;;;;;214.18;200.18;;;22.50;99.90;;;;;;4819748;29;20541;-93
2023/09/04 11:27:46;;;;;;;199.68;186.68;;;22.60;99.90;;;;;;4819909;29;20054;-93
2023/09/04 11:30:18;;;;;;;174.68;163.07;;;22.70;99.90;;;;;;4820777;29;20105;-93
2023/09/04 11:32:49;;;;;;;301.08;279.80;;;22.70;99.90;;;;;;4812483;29;20050;-91
2023/09/04 11:35:15;;;;;;;260.15;241.90;;;22.70;99.90;;;;;;4829267;29;20060;-92
2023/09/04 11:37:42;;;;;;;221.93;207.43;;;22.70;99.90;;;;;;4816040;29;20053;-92
2023/09/04 11:40:09;;;;;;;170.52;158.70;;;22.80;99.90;;;;;;4834967;29;20049;-91
2023/09/04 11:42:37;;;;;;;466.67;428.35;;;22.80;99.90;;;;;;4820783;29;20088;-90
2023/09/04 11:45:06;;;;;;;231.35;215.82;;;22.80;99.90;;;;;;4819632;29;20125;-91
2023/09/04 11:47:32;;;;;;;179.57;167.57;;;22.80;99.90;;;;;;4820878;29;20042;-93
2023/09/04 11:50:03;;;;;;;294.73;275.10;;;22.90;99.90;;;;;;4819266;29;20113;-92
2023/09/04 11:52:29;;;;;;;184.15;171.45;;;22.90;99.90;;;;;;4823291;29;20046;-92
2023/09/04 11:55:22;;;;;;;274.30;254.20;;;22.90;99.90;;;;;;4819020;29;20042;-93
2023/09/04 11:58:05;;;;;;;335.30;310.80;;;23.00;99.90;;;;;;4823847;29;20137;-93
2023/09/04 12:00:33;;;;;;;220.32;205.38;;;22.90;99.90;;;;;;4813568;29;20054;-93
2023/09/04 12:03:22;;;;;;;154.98;144.52;;;22.90;99.90;;;;;;4829274;29;20042;-93
2023/09/04 12:05:57;;;;;;;197.32;183.65;;;22.90;99.90;;;;;;4819423;29;20144;-93
2023/09/04 12:08:35;;;;;;;191.43;178.45;;;22.90;99.90;;;;;;4832821;29;20149;-93
2023/09/04 12:11:01;;;;;;;377.83;350.48;;;23.00;99.90;;;;;;4819313;29;20058;-93
2023/09/04 12:13:37;;;;;;;167.98;156.45;;;23.00;99.90;;;;;;4827840;29;20060;-93
2023/09/04 12:16:21;;;;;;;264.20;246.07;;;22.90;99.90;;;;;;4818978;29;20121;-93
2023/09/04 12:19:15;;;;;;;;;;;;;;;;;;;;;
2023/09/04 12:21:52;;;;;;;172.30;160.63;;;23.10;99.90;;;;;;4825911;29;20110;-92
2023/09/04 12:24:23;;;;;;;272.40;252.95;;;23.00;99.90;;;;;;4819917;29;20160;-91
2023/09/04 12:27:01;;;;;;;319.20;296.08;;;23.00;99.90;;;;;;4820090;29;20440;-94
2023/09/04 12:33:25;;;;;;;199.48;186.13;;;23.00;99.90;;;;;;4831048;29;20125;-91
2023/09/04 12:35:56;;;;;;;230.05;213.40;;;23.00;99.90;;;;;;4818021;29;20065;-92
2023/09/04 12:38:25;;;;;;;275.38;255.57;;;23.10;99.90;;;;;;4813394;29;20054;-92
2023/09/04 12:41:20;;;;;;;300.58;278.52;;;23.10;99.90;;;;;;4804340;29;20524;-92
2023/09/04 12:43:57;;;;;;;264.58;246.10;;;23.10;99.90;;;;;;4819630;29;20501;-93
2023/09/04 12:46:59;;;;;;;173.03;161.13;;;23.10;99.90;;;;;;4815022;29;20054;-93
2023/09/04 12:49:43;;;;;;;341.35;315.52;;;23.10;99.90;;;;;;4819844;29;20054;-92
2023/09/04 12:52:37;;;;;;;355.85;329.45;;;23.10;99.90;;;;;;4836332;29;20049;-93
2023/09/04 12:55:43;;;;;;;372.00;342.90;;;23.20;99.90;;;;;;4832978;29;20075;-93
2023/09/04 12:58:39;;;;;;;459.45;424.45;;;23.30;99.90;;;;;;4814351;29;20058;-93
2023/09/04 13:01:25;;;;;;;369.13;341.67;;;23.20;99.90;;;;;;4811501;29;20054;-92
2023/09/04 13:03:51;;;;;;;437.45;404.92;;;23.20;99.90;;;;;;4834923;29;20612;-92
2023/09/04 13:06:28;;;;;;;;;;;;;;;;;;;;;
2023/09/04 13:09:03;;;;;;;454.38;418.65;;;23.20;99.90;;;;;;4835698;29;20058;-92
2023/09/04 13:11:39;;;;;;;452.40;417.88;;;23.20;99.90;;;;;;4822287;29;20334;-92
2023/09/04 13:14:11;;;;;;;467.33;431.77;;;23.20;99.90;;;;;;4822981;29;20081;-93
2023/09/04 13:16:51;;;;;;;476.38;439.77;;;23.20;99.90;;;;;;4833609;29;20053;-93
2023/09/04 13:19:20;;;;;;;453.25;418.50;;;23.30;99.90;;;;;;4823615;29;20418;-92
2023/09/04 13:22:17;;;;;;;;;;;;;;;;;;;;;
2023/09/04 13:25:14;;;;;;;437.30;404.63;;;23.30;99.90;;;;;;4834126;29;20166;-93
2023/09/04 13:27:53;;;;;;;452.80;417.60;;;23.30;99.90;;;;;;4828512;29;20056;-92
2023/09/04 13:30:41;;;;;;;;;;;;;;;;;;;;;
2023/09/04 13:33:37;;;;;;;497.92;458.13;;;23.40;99.90;;;;;;4824616;29;20061;-92
2023/09/04 13:36:06;;;;;;;402.27;373.98;;;23.30;99.90;;;;;;4833147;29;20380;-92
2023/09/04 13:38:40;;;;;;;457.67;422.42;;;23.30;99.90;;;;;;4828297;29;20084;-91
2023/09/04 13:41:36;;;;;;;268.17;250.43;;;23.60;99.90;;;;;;4813004;29;20053;-92
2023/09/04 13:44:13;;;;;;;108.75;102.07;;;23.40;99.90;;;;;;4811064;29;20052;-93
2023/09/04 13:46:51;;;;;;;306.48;285.30;;;23.40;99.90;;;;;;4837286;29;20050;-93
2023/09/04 13:49:47;;;;;;;362.42;334.48;;;23.40;99.90;;;;;;4822261;29;20522;-93
2023/09/04 13:52:14;;;;;;;317.73;296.27;;;23.40;99.90;;;;;;4815307;29;20092;-93
2023/09/04 13:55:01;;;;;;;348.17;323.83;;;23.40;99.90;;;;;;4821311;29;20102;-94
2023/09/04 13:57:30;;;;;;;399.05;368.65;;;23.50;99.90;;;;;;4816150;29;20046;-93
2023/09/04 13:59:56;;;;;;;387.67;358.52;;;23.50;99.90;;;;;;4814936;29;20569;-93
2023/09/04 14:02:22;;;;;;;290.92;269.90;;;23.60;99.90;;;;;;4836074;29;20168;-93
2023/09/04 14:04:53;;;;;;;347.92;321.42;;;23.80;99.90;;;;;;4808727;29;20627;-93
2023/09/04 14:07:30;;;;;;;363.55;337.05;;;23.60;99.90;;;;;;4827741;29;20045;-94
2023/09/04 14:10:23;;;;;;;208.85;195.30;;;23.80;99.90;;;;;;4812331;29;20088;-93
2023/09/04 14:13:16;;;;;;;300.23;279.27;;;23.80;99.90;;;;;;4814020;29;20208;-93
2023/09/04 14:19:13;;;;;;;217.77;202.55;;;23.70;99.90;;;;;;4836918;29;20464;-94
2023/09/04 14:21:48;;;;;;;318.70;296.25;;;23.70;99.90;;;;;;4837171;29;20124;-96
2023/09/04 14:24:22;;;;;;;377.40;349.70;;;23.80;99.90;;;;;;4817938;29;20555;-92
2023/09/04 14:32:00;;;;;;;447.02;413.55;;;23.80;99.90;;;;;;4818584;29;20831;-94
2023/09/04 14:37:35;;;;;;;454.98;419.08;;;23.80;99.90;;;;;;4749248;29;20054;-95
2023/09/04 14:40:42;;;;;;;;;;;;;;;;;;;;;
2023/09/04 14:43:46;;;;;;;486.92;449.55;;;23.80;99.90;;;;;;4781099;29;20134;-96
2023/09/04 14:46:33;;;;;;;475.77;438.55;;;23.70;99.90;;;;;;4747669;30;20050;-95
2023/09/04 14:50:00;;;;;;;413.55;382.80;;;23.70;99.90;;;;;;4801039;29;20153;-95
2023/09/04 15:09:06;;;;;;;454.20;419.15;;;23.90;99.90;;;;;;4839397;29;20127;-91
2023/09/04 15:12:09;;;;;;;472.85;436.15;;;24.00;99.90;;;;;;4807498;29;20164;-95
2023/09/04 15:14:35;;;;;;;;;;;24.00;99.90;;;;;;4805876;29;20086;-92
2023/09/04 15:17:01;;;;;;;471.63;435.20;;;24.00;99.90;;;;;;4835377;29;19971;-90
2023/09/04 15:19:50;;;;;;;455.92;421.20;;;24.00;99.90;;;;;;4821668;29;20491;-92
2023/09/04 15:22:21;;;;;;;465.20;429.73;;;24.10;99.90;;;;;;4825584;29;20054;-91
2023/09/04 15:24:52;;;;;;;360.00;335.38;;;24.20;99.90;;;;;;4831983;29;20057;-92
2023/09/04 15:27:26;;;;;;;399.15;370.27;;;24.10;99.90;;;;;;4826485;29;20045;-91
2023/09/04 15:29:57;;;;;;;433.00;400.70;;;24.20;99.90;;;;;;4843055;29;20065;-91
2023/09/04 15:32:23;;;;;;;387.85;360.98;;;24.20;99.90;;;;;;4863665;29;20082;-90
2023/09/04 15:34:49;;;;;;;421.42;391.20;;;24.20;99.90;;;;;;4834486;29;20054;-92
2023/09/04 15:37:18;;;;;;;394.38;367.65;;;24.20;99.90;;;;;;4810033;29;20050;-90
2023/09/04 15:39:46;;;;;;;421.60;391.92;;;24.30;99.90;;;;;;4819123;29;20057;-90
2023/09/04 15:42:16;;;;;;;411.85;380.23;;;24.10;99.90;;;;;;4835711;29;20190;-92
2023/09/04 15:44:53;;;;;;;433.17;402.17;;;24.00;99.90;;;;;;4814454;29;20085;-90
2023/09/04 15:47:22;;;;;;;496.58;459.27;;;24.00;99.90;;;;;;4830315;29;20092;-91
2023/09/04 15:49:54;;;;;;;451.30;418.25;;;24.00;99.90;;;;;;4809646;29;20137;-92
2023/09/04 15:52:23;;;;;;;540.15;497.83;;;23.90;99.90;;;;;;4813012;29;20554;-92
2023/09/04 15:55:07;;;;;;;541.33;498.35;;;23.90;99.90;;;;;;4796935;29;20054;-90
2023/09/04 15:57:39;;;;;;;518.22;478.67;;;23.80;99.90;;;;;;4817476;29;20057;-92
2023/09/04 16:00:14;;;;;;;477.08;441.27;;;23.80;99.90;;;;;;4821616;29;20125;-92
2023/09/04 16:02:43;;;;;;;484.50;447.35;;;23.80;99.90;;;;;;4812461;29;20085;-91
2023/09/04 16:05:11;;;;;;;486.13;446.48;;;23.80;99.90;;;;;;4804821;29;20054;-91
2023/09/04 16:07:37;;;;;;;519.03;477.15;;;23.70;99.90;;;;;;4818487;29;20140;-91
2023/09/04 16:10:09;;;;;;;464.25;428.10;;;23.70;99.90;;;;;;4840061;29;20065;-91
2023/09/04 16:12:43;;;;;;;449.75;415.65;;;23.60;99.90;;;;;;4824031;29;20050;-91
2023/09/04 16:15:14;;;;;;;346.13;321.13;;;23.50;99.90;;;;;;4830425;29;20050;-91
2023/09/04 16:17:42;;;;;;;292.48;272.60;;;23.50;99.90;;;;;;4840259;29;20042;-91
2023/09/04 16:20:10;;;;;;;248.48;231.60;;;23.50;99.90;;;;;;4834140;29;20058;-90
2023/09/04 16:22:37;;;;;;;243.30;227.48;;;23.40;99.90;;;;;;4833498;29;20499;-92
2023/09/04 16:25:03;;;;;;;199.23;186.35;;;23.40;99.90;;;;;;4834328;29;20086;-90
2023/09/04 16:27:38;;;;;;;179.35;167.85;;;23.40;99.90;;;;;;4841904;29;20177;-92
2023/09/04 16:30:15;;;;;;;170.88;160.10;;;23.40;99.90;;;;;;4819484;29;20046;-93
2023/09/04 16:33:02;;;;;;;177.45;166.40;;;23.20;99.90;;;;;;4835399;29;20174;-91
2023/09/04 16:35:30;;;;;;;224.05;209.65;;;23.30;99.90;;;;;;4814101;29;20069;-91
2023/09/04 16:38:05;;;;;;;330.83;307.65;;;23.30;99.90;;;;;;4837188;29;20049;-92
2023/09/04 16:41:12;;;;;;;;;;;;;;;;;;;;;
2023/09/04 16:44:20;;;;;;;355.75;328.52;;;23.20;99.90;;;;;;4798405;29;20070;-93
2023/09/04 16:47:24;;;;;;;;;;;;;;;;;;;;;
2023/09/04 16:49:56;;;;;;;437.60;402.85;;;23.20;99.90;;;;;;4836547;29;20073;-93
2023/09/04 16:52:22;;;;;;;493.33;451.98;;;23.10;99.90;;;;;;4834672;29;20480;-92
2023/09/04 16:55:02;;;;;;;467.05;428.40;;;23.20;99.90;;;;;;4803805;29;20057;-92
2023/09/04 16:57:28;;;;;;;419.38;385.90;;;23.30;99.90;;;;;;4811974;29;20093;-92
2023/09/04 17:00:08;;;;;;;457.50;421.02;;;23.10;99.90;;;;;;4819573;29;20066;-92
2023/09/04 17:03:00;;;;;;;468.50;430.35;;;23.00;99.90;;;;;;4784787;29;20149;-92
2023/09/04 17:05:28;;;;;;;418.10;384.67;;;22.80;99.90;;;;;;4822410;29;20460;-93
2023/09/04 17:08:16;;;;;;;416.75;384.05;;;22.80;99.90;;;;;;4820743;29;20090;-92
2023/09/04 17:10:45;;;;;;;394.77;365.35;;;22.90;99.90;;;;;;4830104;29;20421;-91
2023/09/04 17:13:41;;;;;;;461.80;425.60;;;22.60;99.90;;;;;;4823362;29;20054;-92
2023/09/04 17:16:12;;;;;;;483.30;445.30;;;22.50;99.90;;;;;;4839408;29;20049;-92
2023/09/04 17:18:57;;;;;;;498.92;459.85;;;22.40;99.90;;;;;;4838980;29;20551;-93
2023/09/04 17:21:29;;;;;;;551.72;505.95;;;22.30;99.90;;;;;;4825706;29;20081;-92
2023/09/04 17:24:15;;;;;;;508.58;465.75;;;22.20;99.90;;;;;;4807555;29;20567;-92
2023/09/04 17:26:53;;;;;;;550.42;504.55;;;22.00;99.90;;;;;;4824150;29;20113;-95
2023/09/04 18:52:21;;;;;;;;;;;;;;;;;;;;;
2023/09/04 18:58:36;;;;;;;609.45;551.10;;;18.50;99.90;;;;;;4831188;24;20077;-91
2023/09/04 19:01:06;;;;;;;570.50;516.20;;;18.40;99.90;;;;;;4787962;29;20061;-91
2023/09/04 19:04:21;;;;;;;631.35;569.95;;;18.40;99.90;;;;;;4777395;29;20128;-91
2023/09/04 19:10:24;;;;;;;565.35;513.30;;;18.20;99.90;;;;;;4803208;29;20085;-92
